Time;durP1;ratioP1;P1;durP2;ratioP2;P2;SDS_P1;SDS_P2;PMS_P1;PMS_P2;Temp;Humidity;BMP_temperature;BMP_pressure;BME280_temperature;BME280_humidity;BME280_pressure;Samples;Min_cycle;Max_cycle;Signal;HPM_P1;HPM_P2
2021/03/07 00:00:15;;;;;;;12.85;6.85;;;;;;;-3.72;100.00;96829.69;1015881;29;20024;-51
2021/03/07 00:00:45;;;;;;;13.16;6.90;;;;;;;-3.74;100.00;96819.47;1019686;29;20036;-49
2021/03/07 00:01:16;;;;;;;9.50;7.03;;;;;;;-3.69;100.00;96823.75;1015953;29;20030;-48
2021/03/07 00:01:47;;;;;;;11.50;7.60;;;;;;;-3.71;100.00;96822.03;1015780;29;20115;-49
2021/03/07 00:02:17;;;;;;;14.35;7.55;;;;;;;-3.70;100.00;96828.00;1019636;29;20016;-50
2021/03/07 00:02:48;;;;;;;13.77;7.57;;;;;;;-3.71;100.00;96826.31;1019662;29;20027;-49
2021/03/07 00:03:19;;;;;;;11.16;6.84;;;;;;;-3.69;100.00;96826.31;1023691;28;20015;-50
2021/03/07 00:03:50;;;;;;;12.35;7.18;;;;;;;-3.70;100.00;96822.88;1015615;29;20458;-49
2021/03/07 00:04:20;;;;;;;10.38;7.18;;;;;;;-3.71;100.00;96821.19;1019641;29;20119;-50
2021/03/07 00:04:51;;;;;;;9.90;6.55;;;;;;;-3.73;100.00;96822.88;1027612;28;20023;-50
2021/03/07 00:05:22;;;;;;;12.40;7.18;;;;;;;-3.74;100.00;96822.00;1019750;29;20086;-49
2021/03/07 00:05:53;;;;;;;11.82;7.10;;;;;;;-3.72;100.00;96820.34;1023664;28;20027;-50
2021/03/07 00:06:24;;;;;;;12.27;6.43;;;;;;;-3.71;100.00;96822.03;1023721;28;20595;-49
2021/03/07 00:06:54;;;;;;;11.05;7.40;;;;;;;-3.70;100.00;96822.88;1019660;29;20456;-49
2021/03/07 00:07:25;;;;;;;12.27;7.20;;;;;;;-3.72;100.00;96824.59;1015749;29;20023;-49
2021/03/07 00:07:56;;;;;;;10.85;6.97;;;;;;;-3.70;100.00;96822.88;1019855;29;20020;-48
2021/03/07 00:08:34;;;;;;;12.85;7.88;;;;;;;-3.70;100.00;96822.88;1023722;28;20029;-51
2021/03/07 00:09:05;;;;;;;10.44;6.42;;;;;;;-3.73;100.00;96815.22;1027788;28;20042;-50
2021/03/07 00:09:36;;;;;;;14.38;7.50;;;;;;;-3.69;100.00;96823.75;1027766;28;20074;-50
2021/03/07 00:10:08;;;;;;;11.85;7.22;;;;;;;-3.69;100.00;96822.03;1027749;28;20034;-51
2021/03/07 00:10:39;;;;;;;13.66;7.52;;;;;;;-3.68;100.00;96822.88;1024035;28;20022;-48
2021/03/07 00:11:10;;;;;;;15.30;8.43;;;;;;;-3.67;100.00;96829.72;1015809;29;20028;-46
2021/03/07 00:11:41;;;;;;;15.15;8.95;;;;;;;-3.67;100.00;96822.88;1016260;29;20044;-48
2021/03/07 00:12:11;;;;;;;16.35;8.55;;;;;;;-3.67;100.00;96812.63;1019644;29;20043;-47
2021/03/07 00:12:42;;;;;;;14.38;8.40;;;;;;;-3.67;100.00;96820.31;1019552;29;20111;-49
2021/03/07 00:13:13;;;;;;;16.38;9.20;;;;;;;-3.65;100.00;96817.75;1015759;29;20060;-48
2021/03/07 00:13:43;;;;;;;14.82;8.57;;;;;;;-3.65;100.00;96817.75;1023555;29;20023;-49
2021/03/07 00:14:14;;;;;;;14.70;8.27;;;;;;;-3.67;100.00;96815.19;1027755;28;20069;-46
2021/03/07 00:14:45;;;;;;;13.55;8.32;;;;;;;-3.66;100.00;96810.91;1019747;29;20019;-51
2021/03/07 00:15:18;;;;;;;14.73;8.48;;;;;;;-3.66;100.00;96814.34;1027580;28;20045;-49
2021/03/07 00:15:48;;;;;;;13.00;8.06;;;;;;;-3.66;100.00;96810.91;1027739;28;20500;-49
2021/03/07 00:16:19;;;;;;;14.35;8.98;;;;;;;-3.67;100.00;96812.63;1023713;28;20023;-50
2021/03/07 00:16:50;;;;;;;13.40;8.60;;;;;;;-3.67;100.00;96812.63;1019749;29;20597;-49
2021/03/07 00:17:21;;;;;;;13.18;8.98;;;;;;;-3.73;100.00;96800.69;1027578;28;20022;-49
2021/03/07 00:17:52;;;;;;;13.05;8.48;;;;;;;-3.67;100.00;96816.91;1015842;29;20024;-49
2021/03/07 00:18:22;;;;;;;12.76;8.24;;;;;;;-3.69;100.00;96816.91;1019765;29;20048;-49
2021/03/07 00:18:53;;;;;;;11.95;7.65;;;;;;;-3.71;100.00;96816.91;1023721;28;20531;-49
2021/03/07 00:19:24;;;;;;;11.63;7.28;;;;;;;-3.71;100.00;96814.34;1019695;28;20020;-50
2021/03/07 00:19:54;;;;;;;15.68;8.30;;;;;;;-3.69;100.00;96813.50;1019760;29;20363;-48
2021/03/07 00:20:25;;;;;;;11.55;7.65;;;;;;;-3.69;100.00;96811.78;1023576;28;20019;-50
2021/03/07 00:20:56;;;;;;;13.65;7.57;;;;;;;-3.68;100.00;96816.03;1019775;28;20103;-48
2021/03/07 00:21:26;;;;;;;12.68;8.35;;;;;;;-3.69;100.00;96811.78;1019589;29;20008;-48
2021/03/07 00:21:58;;;;;;;11.23;7.93;;;;;;;-3.68;100.00;96817.75;1027733;28;20019;-51
2021/03/07 00:22:28;;;;;;;12.36;7.86;;;;;;;-3.71;100.00;96816.06;1023606;29;20090;-48
2021/03/07 00:22:59;;;;;;;12.02;8.13;;;;;;;-3.74;100.00;96811.78;1019775;28;20058;-48
2021/03/07 00:23:30;;;;;;;11.23;7.53;;;;;;;-3.71;100.00;96813.50;1023480;28;20493;-46
2021/03/07 00:24:01;;;;;;;14.05;7.97;;;;;;;-3.73;100.00;96818.63;1027533;28;20010;-50
2021/03/07 00:24:31;;;;;;;13.08;7.68;;;;;;;-3.76;100.00;96808.38;1023661;28;20110;-51
2021/03/07 00:25:04;;;;;;;12.70;8.25;;;;;;;-3.75;100.00;96812.66;1019668;28;20015;-50
2021/03/07 00:25:35;;;;;;;12.42;8.18;;;;;;;-3.76;100.00;96812.63;1027573;28;20023;-49
2021/03/07 00:26:05;;;;;;;11.57;7.72;;;;;;;-3.77;100.00;96811.78;1023678;28;20015;-52
2021/03/07 00:26:36;;;;;;;13.10;8.07;;;;;;;-3.78;100.00;96815.19;1023630;29;20111;-50
2021/03/07 00:27:07;;;;;;;14.07;8.90;;;;;;;-3.78;100.00;96816.91;1024473;28;20102;-48
2021/03/07 00:27:38;;;;;;;11.93;7.22;;;;;;;-3.77;100.00;96806.69;1019470;29;20016;-50
2021/03/07 00:28:44;;;;;;;12.24;8.28;;;;;;;-3.81;100.00;96812.66;1017071;28;20099;-49
2021/03/07 00:29:15;;;;;;;13.20;7.90;;;;;;;-3.84;100.00;96810.09;1018928;29;20031;-48
2021/03/07 00:29:45;;;;;;;16.08;9.02;;;;;;;-3.82;100.00;96810.94;1019577;29;20024;-48
2021/03/07 00:30:17;;;;;;;13.63;8.63;;;;;;;-3.83;100.00;96808.38;1023493;29;20027;-49
2021/03/07 00:30:47;;;;;;;13.78;8.70;;;;;;;-3.85;100.00;96813.47;1019493;29;20087;-50
2021/03/07 00:31:18;;;;;;;16.13;9.00;;;;;;;-3.89;100.00;96801.53;1027316;28;20536;-48
2021/03/07 00:31:49;;;;;;;17.27;9.00;;;;;;;-3.83;100.00;96810.94;1023537;29;20027;-48
2021/03/07 00:32:19;;;;;;;16.45;9.30;;;;;;;-3.86;100.00;96811.78;1023394;29;20114;-48
2021/03/07 00:32:50;;;;;;;16.92;9.50;;;;;;;-3.87;100.00;96815.19;1023460;29;20031;-48
2021/03/07 00:33:21;;;;;;;15.77;9.60;;;;;;;-3.89;100.00;96804.09;1023501;29;20093;-48
2021/03/07 00:33:51;;;;;;;16.98;9.23;;;;;;;-4.03;100.00;96786.19;1015467;29;20137;-48
2021/03/07 00:34:22;;;;;;;15.73;9.65;;;;;;;-3.93;100.00;96799.84;1019457;29;20466;-48
2021/03/07 00:34:53;;;;;;;18.98;9.38;;;;;;;-3.91;100.00;96816.03;1019640;29;20027;-48
2021/03/07 00:35:23;;;;;;;19.27;9.40;;;;;;;-3.91;100.00;96808.38;1023554;28;20039;-47
2021/03/07 00:35:54;;;;;;;15.57;9.63;;;;;;;-3.92;100.00;96807.53;1020093;29;20027;-49
2021/03/07 00:36:25;;;;;;;16.38;9.73;;;;;;;-4.06;100.00;96785.34;1023493;29;20150;-47
2021/03/07 00:36:55;;;;;;;16.13;9.18;;;;;;;-3.93;100.00;96810.06;1027405;28;20050;-48
2021/03/07 00:37:26;;;;;;;15.40;9.93;;;;;;;-3.92;100.00;96812.66;1023500;29;20025;-48
2021/03/07 00:37:57;;;;;;;16.67;9.63;;;;;;;-3.92;100.00;96806.69;1019469;29;20130;-47
2021/03/07 00:38:27;;;;;;;17.77;9.73;;;;;;;-3.92;100.00;96811.81;1019468;29;20505;-47
2021/03/07 00:38:58;;;;;;;16.30;9.10;;;;;;;-3.92;100.00;96810.09;1031364;28;20023;-49
2021/03/07 00:39:30;;;;;;;15.90;9.20;;;;;;;-3.92;100.00;96801.56;1031490;28;20643;-48
2021/03/07 00:40:01;;;;;;;15.20;9.44;;;;;;;-3.93;100.00;96804.97;1019671;29;20517;-48
2021/03/07 00:40:31;;;;;;;19.05;10.52;;;;;;;-3.95;100.00;96806.66;1023470;29;20114;-48
2021/03/07 00:41:02;;;;;;;16.40;9.70;;;;;;;-3.96;100.00;96802.38;1023525;29;20023;-49
2021/03/07 00:41:34;;;;;;;13.90;8.68;;;;;;;-3.97;100.00;96810.94;1023453;29;20042;-48
2021/03/07 00:42:05;;;;;;;14.96;9.10;;;;;;;-3.97;100.00;96810.94;1023519;29;20110;-48
2021/03/07 00:42:36;;;;;;;15.70;8.82;;;;;;;-3.96;100.00;96804.94;1019557;29;20020;-48
2021/03/07 00:43:07;;;;;;;13.22;8.06;;;;;;;-3.98;100.00;96807.53;1023294;29;20094;-47
2021/03/07 00:43:37;;;;;;;19.25;9.02;;;;;;;-4.02;100.00;96795.56;1023321;29;20026;-48
2021/03/07 00:44:09;;;;;;;14.30;9.35;;;;;;;-3.98;100.00;96801.53;1015711;29;20394;-49
2021/03/07 00:44:40;;;;;;;14.90;8.82;;;;;;;-3.98;100.00;96806.66;1019550;29;20471;-47
2021/03/07 00:45:11;;;;;;;14.38;8.85;;;;;;;-4.00;100.00;96804.09;1023362;29;20019;-50
2021/03/07 00:45:41;;;;;;;15.76;8.64;;;;;;;-4.00;100.00;96800.69;1019478;29;20156;-48
2021/03/07 00:46:12;;;;;;;15.27;8.52;;;;;;;-4.03;100.00;96793.88;1019525;29;20027;-48
2021/03/07 00:46:44;;;;;;;15.43;9.20;;;;;;;-4.02;100.00;96798.13;1015649;29;20044;-48
2021/03/07 00:47:15;;;;;;;13.26;8.18;;;;;;;-4.01;100.00;96810.06;1011595;29;20486;-49
2021/03/07 00:47:46;;;;;;;12.66;8.12;;;;;;;-4.03;100.00;96801.53;1015574;29;20014;-48
2021/03/07 00:48:17;;;;;;;13.88;8.05;;;;;;;-4.02;100.00;96805.78;1023419;28;20106;-48
2021/03/07 00:48:47;;;;;;;16.40;8.15;;;;;;;-4.02;100.00;96800.69;1019486;29;20026;-48
2021/03/07 00:49:19;;;;;;;14.68;9.25;;;;;;;-4.01;100.00;96801.56;1019469;29;20066;-47
2021/03/07 00:49:50;;;;;;;12.52;7.66;;;;;;;-4.01;100.00;96806.66;1023474;29;20027;-48
2021/03/07 00:50:22;;;;;;;15.05;8.35;;;;;;;-4.05;100.00;96810.06;1019528;29;20019;-49
2021/03/07 00:50:52;;;;;;;14.54;9.12;;;;;;;-4.04;100.00;96806.66;1015593;29;20075;-49
2021/03/07 00:51:23;;;;;;;13.25;8.13;;;;;;;-4.05;100.00;96799.81;1015445;29;20012;-48
2021/03/07 00:51:54;;;;;;;13.38;8.18;;;;;;;-4.07;100.00;96799.84;1015542;29;20024;-47
2021/03/07 00:52:25;;;;;;;14.23;8.00;;;;;;;-4.07;100.00;96802.41;1011656;29;20107;-49
2021/03/07 00:52:56;;;;;;;13.27;8.30;;;;;;;-4.08;100.00;96808.34;1011697;29;20422;-47
2021/03/07 00:53:27;;;;;;;11.78;7.82;;;;;;;-4.11;100.00;96804.09;1015358;29;20529;-49
2021/03/07 00:53:57;;;;;;;14.30;7.68;;;;;;;-4.12;100.00;96809.22;1015359;29;20022;-48
2021/03/07 00:54:28;;;;;;;14.98;7.95;;;;;;;-4.11;100.00;96800.66;1023482;29;20470;-48
2021/03/07 00:54:59;;;;;;;11.40;7.40;;;;;;;-4.13;100.00;96810.94;1027474;28;20049;-50
2021/03/07 00:55:29;;;;;;;11.48;7.75;;;;;;;-4.12;100.00;96804.09;1019469;29;20051;-48
2021/03/07 00:56:00;;;;;;;13.93;8.27;;;;;;;-4.12;100.00;96801.53;1023586;29;20019;-48
2021/03/07 00:56:31;;;;;;;11.45;7.50;;;;;;;-4.10;100.00;96802.38;1023443;29;20090;-49
2021/03/07 00:57:02;;;;;;;13.90;8.18;;;;;;;-4.10;100.00;96808.34;1019478;29;20016;-47
2021/03/07 00:57:33;;;;;;;11.85;8.05;;;;;;;-4.10;100.00;96812.63;1019335;28;20027;-49
2021/03/07 00:58:03;;;;;;;12.90;7.63;;;;;;;-4.12;100.00;96801.53;1019418;29;20016;-47
2021/03/07 00:58:34;;;;;;;10.45;7.00;;;;;;;-4.11;100.00;96810.91;1019458;29;20509;-48
2021/03/07 00:59:05;;;;;;;11.88;7.07;;;;;;;-4.10;100.00;96812.63;1019481;29;20022;-48
2021/03/07 00:59:35;;;;;;;10.60;7.00;;;;;;;-4.11;100.00;96804.09;1019335;29;20534;-48
2021/03/07 01:00:15;;;;;;;14.23;7.75;;;;;;;-4.10;100.00;96802.38;1023391;28;20054;-46
2021/03/07 01:00:47;;;;;;;11.24;7.06;;;;;;;-4.08;100.00;96802.41;1019379;29;20016;-47
2021/03/07 01:01:18;;;;;;;12.68;7.32;;;;;;;-4.08;100.00;96800.69;1019471;29;20030;-48
2021/03/07 01:01:50;;;;;;;14.70;7.20;;;;;;;-4.07;100.00;96804.97;1019350;29;20111;-49
2021/03/07 01:02:21;;;;;;;10.26;6.80;;;;;;;-4.07;100.00;96804.09;1023376;29;20030;-47
2021/03/07 01:02:51;;;;;;;12.00;6.53;;;;;;;-4.08;100.00;96803.25;1019462;29;20031;-48
2021/03/07 01:03:22;;;;;;;10.60;6.60;;;;;;;-4.08;100.00;96800.69;1023425;29;20449;-48
2021/03/07 01:03:53;;;;;;;10.70;7.00;;;;;;;-4.06;100.00;96801.53;1023038;29;20416;-48
2021/03/07 01:04:23;;;;;;;8.93;6.43;;;;;;;-4.08;100.00;96795.56;1019480;29;20141;-48
2021/03/07 01:04:54;;;;;;;10.27;6.57;;;;;;;-4.05;100.00;96799.81;1023483;29;20082;-48
2021/03/07 01:05:26;;;;;;;10.85;7.05;;;;;;;-4.03;100.00;96796.44;1019528;29;20036;-48
2021/03/07 01:05:57;;;;;;;10.90;7.26;;;;;;;-4.02;100.00;96802.38;1023334;29;20477;-48
2021/03/07 01:06:28;;;;;;;10.00;6.70;;;;;;;-4.02;100.00;96797.28;1015665;29;20024;-48
2021/03/07 01:06:59;;;;;;;8.55;5.97;;;;;;;-4.01;100.00;96797.28;1023423;29;20480;-47
2021/03/07 01:07:29;;;;;;;12.13;6.88;;;;;;;-4.05;100.00;96797.25;1023371;29;20512;-48
2021/03/07 01:08:00;;;;;;;10.82;6.78;;;;;;;-4.02;100.00;96798.13;1023218;28;20023;-47
2021/03/07 01:08:31;;;;;;;13.93;7.43;;;;;;;-4.02;100.00;96794.72;1019438;29;20095;-47
2021/03/07 01:09:02;;;;;;;10.32;6.78;;;;;;;-4.08;100.00;96787.88;1015653;29;20194;-49
2021/03/07 01:09:33;;;;;;;12.54;7.30;;;;;;;-4.06;100.00;96798.13;1015878;29;20287;-48
2021/03/07 01:10:14;;;;;;;11.52;6.78;;;;;;;-4.07;100.00;96793.84;1015658;29;20035;-48
2021/03/07 01:10:45;;;;;;;11.64;7.34;;;;;;;-4.09;100.00;96793.88;1017271;29;20107;-48
2021/03/07 01:11:16;;;;;;;11.50;6.85;;;;;;;-4.09;100.00;96793.88;1015664;29;20020;-48
2021/03/07 01:11:47;;;;;;;11.68;7.22;;;;;;;-4.11;100.00;96796.44;1015695;29;20032;-47
2021/03/07 01:12:17;;;;;;;9.10;6.72;;;;;;;-4.11;100.00;96790.44;1019499;29;20032;-49
2021/03/07 01:12:49;;;;;;;10.95;7.20;;;;;;;-4.13;100.00;96793.00;1023335;29;20070;-48
2021/03/07 01:13:20;;;;;;;13.96;7.80;;;;;;;-4.13;100.00;96787.91;1023464;28;20090;-48
2021/03/07 01:13:51;;;;;;;11.50;6.60;;;;;;;-4.13;100.00;96792.13;1031254;28;20056;-47
2021/03/07 01:14:21;;;;;;;12.20;7.47;;;;;;;-4.14;100.00;96790.44;1019392;29;20847;-47
2021/03/07 01:14:52;;;;;;;10.77;6.65;;;;;;;-4.15;100.00;96794.72;1019498;29;20055;-48
2021/03/07 01:15:25;;;;;;;11.80;7.13;;;;;;;-4.17;100.00;96795.56;1011683;29;20028;-48
2021/03/07 01:15:56;;;;;;;11.92;7.44;;;;;;;-4.17;100.00;96780.19;1015486;29;20059;-48
2021/03/07 01:16:27;;;;;;;12.68;7.78;;;;;;;-4.17;100.00;96786.16;1019331;29;20087;-48
2021/03/07 01:16:57;;;;;;;10.77;7.60;;;;;;;-4.18;100.00;96783.63;1023397;29;20364;-47
2021/03/07 01:17:28;;;;;;;10.70;7.05;;;;;;;-4.18;100.00;96784.47;1015613;29;20024;-48
2021/03/07 01:17:59;;;;;;;12.63;7.55;;;;;;;-4.17;100.00;96787.88;1019440;29;20023;-48
2021/03/07 01:18:30;;;;;;;10.75;7.28;;;;;;;-4.16;100.00;96787.88;1027286;28;20101;-49
2021/03/07 01:19:00;;;;;;;12.35;6.53;;;;;;;-4.16;100.00;96787.88;1027399;28;20023;-48
2021/03/07 01:19:33;;;;;;;10.57;6.97;;;;;;;-4.18;100.00;96781.91;1023427;29;20122;-48
2021/03/07 01:20:13;;;;;;;12.20;6.86;;;;;;;-4.17;100.00;96786.16;1019509;29;20023;-48
2021/03/07 01:20:44;;;;;;;10.50;6.78;;;;;;;-4.18;100.00;96784.47;1023469;28;20397;-47
2021/03/07 01:21:14;;;;;;;11.40;7.47;;;;;;;-4.17;100.00;96782.75;1015368;29;20028;-48
2021/03/07 01:21:45;;;;;;;10.40;7.10;;;;;;;-4.17;100.00;96782.75;1015474;29;20031;-48
2021/03/07 01:22:16;;;;;;;12.60;7.40;;;;;;;-4.20;100.00;96780.22;1015437;29;20107;-49
2021/03/07 01:22:47;;;;;;;12.40;7.60;;;;;;;-4.20;100.00;96777.66;1019350;29;20485;-49
2021/03/07 01:23:18;;;;;;;11.23;7.25;;;;;;;-4.23;100.00;96778.50;1015435;29;20030;-48
2021/03/07 01:23:49;;;;;;;10.48;6.90;;;;;;;-4.23;100.00;96782.75;1011339;29;20786;-49
2021/03/07 01:24:19;;;;;;;10.77;6.90;;;;;;;-4.22;100.00;96779.34;1015339;29;20107;-48
2021/03/07 01:24:50;;;;;;;11.40;6.40;;;;;;;-4.23;100.00;96775.09;1015541;29;20016;-47
2021/03/07 01:25:26;;;;;;;12.82;7.43;;;;;;;-4.24;100.00;96778.47;1011650;29;20021;-48
2021/03/07 01:25:56;;;;;;;14.32;7.08;;;;;;;-4.24;100.00;96775.91;1019515;29;20055;-48
2021/03/07 01:26:27;;;;;;;11.70;7.40;;;;;;;-4.26;100.00;96768.28;1019364;29;20024;-48
2021/03/07 01:26:58;;;;;;;10.95;6.93;;;;;;;-4.23;100.00;96775.94;1015639;29;20443;-48
2021/03/07 01:27:28;;;;;;;10.45;6.97;;;;;;;-4.24;100.00;96776.81;1023262;29;20019;-48
2021/03/07 01:28:00;;;;;;;10.60;6.95;;;;;;;-4.23;100.00;96770.81;1023390;28;20022;-48
2021/03/07 01:28:31;;;;;;;11.06;7.60;;;;;;;-4.23;100.00;96772.53;996764;29;777134;-47
2021/03/07 01:29:02;;;;;;;11.63;7.15;;;;;;;-4.23;100.00;96765.69;1027627;28;20081;-48
2021/03/07 01:29:33;;;;;;;11.42;6.96;;;;;;;-4.25;100.00;96769.13;1031546;28;20033;-48
2021/03/07 01:30:06;;;;;;;12.70;7.57;;;;;;;-4.24;100.00;96765.69;1031590;28;20623;-47
2021/03/07 01:30:38;;;;;;;13.62;7.62;;;;;;;-4.23;100.00;96763.13;1027445;28;20026;-48
2021/03/07 01:31:09;;;;;;;12.00;7.22;;;;;;;-4.23;100.00;96767.41;1023575;28;20012;-47
2021/03/07 01:31:40;;;;;;;10.00;7.05;;;;;;;-4.24;100.00;96771.69;1023556;29;20193;-47
2021/03/07 01:32:11;;;;;;;11.75;6.90;;;;;;;-4.26;100.00;96765.72;1027487;28;20023;-48
2021/03/07 01:32:42;;;;;;;10.95;6.85;;;;;;;-4.26;100.00;96764.84;1023463;29;20046;-48
2021/03/07 01:33:12;;;;;;;10.23;7.43;;;;;;;-4.25;100.00;96766.56;1023466;29;20026;-49
2021/03/07 01:33:43;;;;;;;10.52;7.18;;;;;;;-4.25;100.00;96764.00;1023429;29;20262;-49
2021/03/07 01:34:14;;;;;;;10.80;7.20;;;;;;;-4.25;100.00;96769.13;1019572;29;20487;-47
2021/03/07 01:34:44;;;;;;;9.75;6.82;;;;;;;-4.30;100.00;96759.75;1019563;29;20071;-48
2021/03/07 01:35:15;;;;;;;10.50;6.97;;;;;;;-4.28;100.00;96769.94;1023440;29;20015;-48
2021/03/07 01:35:46;;;;;;;11.86;7.70;;;;;;;-4.26;100.00;96767.41;1019535;29;20019;-47
2021/03/07 01:36:17;;;;;;;10.43;6.45;;;;;;;-4.26;100.00;96759.72;1019626;29;20012;-48
2021/03/07 01:36:47;;;;;;;10.27;6.78;;;;;;;-4.27;100.00;96764.00;1019593;29;20050;-49
2021/03/07 01:37:18;;;;;;;10.27;7.22;;;;;;;-4.28;100.00;96764.84;1019487;29;20486;-48
2021/03/07 01:37:49;;;;;;;12.00;6.07;;;;;;;-4.28;100.00;96767.38;1023614;29;20106;-49
2021/03/07 01:38:20;;;;;;;12.23;7.40;;;;;;;-4.31;100.00;96762.28;1031519;28;20448;-47
2021/03/07 01:38:50;;;;;;;11.40;7.18;;;;;;;-4.30;100.00;96764.84;1019528;29;20016;-48
2021/03/07 01:39:21;;;;;;;10.52;7.28;;;;;;;-4.30;100.00;96764.84;1015552;29;20028;-48
2021/03/07 01:39:53;;;;;;;11.60;7.18;;;;;;;-4.33;100.00;96761.44;1015719;29;20052;-48
2021/03/07 01:40:29;;;;;;;12.00;6.84;;;;;;;-4.31;100.00;96764.84;1019816;29;20012;-48
2021/03/07 01:41:00;;;;;;;11.16;7.16;;;;;;;-4.30;100.00;96759.75;1016315;29;20020;-46
2021/03/07 01:41:31;;;;;;;10.82;7.12;;;;;;;-4.30;100.00;96761.41;1016348;29;20076;-48
2021/03/07 01:42:10;;;;;;;13.13;7.00;;;;;;;-4.34;100.00;96757.16;1020352;29;20024;-47
2021/03/07 01:42:44;;;;;;;11.12;6.78;;;;;;;-4.33;100.00;96764.00;1020416;29;20481;-49
2021/03/07 01:43:16;;;;;;;9.58;6.12;;;;;;;-4.34;100.00;96754.59;1016234;29;20504;-49
2021/03/07 01:43:47;;;;;;;11.48;7.24;;;;;;;-4.33;100.00;96757.16;1018068;29;20020;-49
2021/03/07 01:44:18;;;;;;;11.20;7.10;;;;;;;-4.33;100.00;96753.75;1020382;29;20027;-48
2021/03/07 01:44:48;;;;;;;9.85;6.57;;;;;;;-4.34;100.00;96755.44;1020378;29;20051;-47
2021/03/07 01:45:21;;;;;;;10.23;7.13;;;;;;;-4.34;100.00;96749.47;1024150;29;20158;-48
2021/03/07 01:45:52;;;;;;;9.94;6.84;;;;;;;-4.34;100.00;96749.47;1024310;29;20028;-47
2021/03/07 01:46:23;;;;;;;9.90;6.44;;;;;;;-4.33;100.00;96758.88;1020529;29;20803;-47
2021/03/07 01:46:54;;;;;;;10.25;6.55;;;;;;;-4.32;100.00;96752.88;1028287;28;20054;-48
2021/03/07 01:47:33;;;;;;;10.43;7.15;;;;;;;-4.33;100.00;96752.06;1024199;29;20552;-48
2021/03/07 01:48:06;;;;;;;10.77;7.00;;;;;;;-4.33;100.00;96754.59;1024192;29;20117;-48
2021/03/07 01:48:37;;;;;;;10.46;6.24;;;;;;;-4.32;100.00;96747.78;1020370;29;20031;-48
2021/03/07 01:49:07;;;;;;;8.80;6.48;;;;;;;-4.32;100.00;96758.88;1016415;29;20035;-48
2021/03/07 01:49:38;;;;;;;10.20;6.70;;;;;;;-4.33;100.00;96751.19;1016282;29;20123;-48
2021/03/07 01:50:10;;;;;;;11.85;6.85;;;;;;;-4.32;100.00;96753.78;1020409;29;20035;-49
2021/03/07 01:50:43;;;;;;;10.44;6.62;;;;;;;-4.32;100.00;96753.78;1020253;29;20024;-47
2021/03/07 01:51:14;;;;;;;10.12;6.96;;;;;;;-4.32;100.00;96752.88;1020281;29;20055;-48
2021/03/07 01:51:45;;;;;;;9.18;6.56;;;;;;;-4.35;100.00;96746.09;1024186;29;20392;-48
2021/03/07 01:52:15;;;;;;;11.48;6.88;;;;;;;-4.36;100.00;96748.63;1020121;29;20050;-49
2021/03/07 01:52:46;;;;;;;11.20;6.68;;;;;;;-4.36;100.00;96746.06;1020281;29;20026;-48
2021/03/07 01:53:17;;;;;;;10.26;6.50;;;;;;;-4.36;100.00;96748.63;1024178;29;20023;-47
2021/03/07 01:53:48;;;;;;;11.52;7.65;;;;;;;-4.39;100.00;96746.94;1020078;29;20020;-48
2021/03/07 01:54:19;;;;;;;10.27;7.00;;;;;;;-4.39;100.00;96743.50;1020211;29;20030;-48
2021/03/07 01:54:50;;;;;;;10.07;6.88;;;;;;;-4.39;100.00;96746.06;1020214;29;20114;-49
2021/03/07 01:55:23;;;;;;;13.10;6.74;;;;;;;-4.41;100.00;96746.09;1032146;28;20019;-48
2021/03/07 01:55:54;;;;;;;10.70;6.90;;;;;;;-4.42;100.00;96744.38;1028212;28;20023;-49
2021/03/07 01:56:25;;;;;;;12.32;7.28;;;;;;;-4.42;100.00;96740.97;1028126;28;20109;-49
2021/03/07 01:56:55;;;;;;;10.27;7.18;;;;;;;-4.42;100.00;96739.25;1020217;29;20082;-49
2021/03/07 01:57:26;;;;;;;10.13;6.75;;;;;;;-4.42;100.00;96744.38;1028149;28;20058;-49
2021/03/07 01:58:01;;;;;;;10.48;6.68;;;;;;;-4.43;100.00;96742.66;1020214;29;20027;-47
2021/03/07 01:58:33;;;;;;;10.06;6.90;;;;;;;-4.43;100.00;96742.66;1020405;29;20039;-48
2021/03/07 01:59:04;;;;;;;11.38;6.80;;;;;;;-4.46;100.00;96734.97;1024173;29;20050;-50
2021/03/07 01:59:34;;;;;;;10.10;6.78;;;;;;;-4.43;100.00;96739.25;1020257;29;20024;-47
2021/03/07 02:00:08;;;;;;;9.48;6.65;;;;;;;-4.47;100.00;96733.25;1016130;29;20024;-48
2021/03/07 02:00:39;;;;;;;11.74;7.32;;;;;;;-4.48;100.00;96733.28;1020196;29;20100;-49
2021/03/07 02:01:09;;;;;;;12.02;7.42;;;;;;;-4.50;100.00;96736.69;1020313;28;20152;-47
2021/03/07 02:01:41;;;;;;;9.13;6.57;;;;;;;-4.51;100.00;96734.97;1016398;29;20439;-47
2021/03/07 02:02:12;;;;;;;12.76;7.56;;;;;;;-4.50;100.00;96733.28;1020142;29;20026;-48
2021/03/07 02:02:43;;;;;;;9.10;6.25;;;;;;;-4.48;100.00;96736.69;1024247;29;20493;-48
2021/03/07 02:03:14;;;;;;;10.54;7.16;;;;;;;-4.51;100.00;96727.28;1028100;28;20015;-48
2021/03/07 02:03:52;;;;;;;10.20;6.47;;;;;;;-4.51;100.00;96731.56;1028112;28;20030;-47
2021/03/07 02:04:23;;;;;;;8.78;6.82;;;;;;;-4.50;100.00;96734.13;1024057;29;20508;-48
2021/03/07 02:04:54;;;;;;;11.74;7.52;;;;;;;-4.50;100.00;96730.72;1020285;29;20139;-48
2021/03/07 02:05:25;;;;;;;10.20;6.45;;;;;;;-4.53;100.00;96726.44;1020270;29;20510;-49
2021/03/07 02:05:57;;;;;;;11.02;7.10;;;;;;;-4.51;100.00;96729.84;1020240;29;20026;-50
2021/03/07 02:06:28;;;;;;;10.84;6.58;;;;;;;-4.51;100.00;96732.41;1020128;29;20346;-48
2021/03/07 02:06:59;;;;;;;12.48;8.10;;;;;;;-4.52;100.00;96730.72;1016442;29;20027;-48
2021/03/07 02:07:30;;;;;;;10.70;7.10;;;;;;;-4.52;100.00;96724.75;1024194;29;20548;-48
2021/03/07 02:08:01;;;;;;;13.57;7.72;;;;;;;-4.50;100.00;96725.59;1020217;29;20024;-47
2021/03/07 02:08:31;;;;;;;11.98;7.15;;;;;;;-4.50;100.00;96723.91;1028080;28;20034;-48
2021/03/07 02:09:02;;;;;;;10.55;7.45;;;;;;;-4.50;100.00;96717.94;1032352;28;20022;-48
2021/03/07 02:09:33;;;;;;;13.66;8.56;;;;;;;-4.48;100.00;96723.91;1016281;28;20458;-48
2021/03/07 02:10:04;;;;;;;10.93;7.00;;;;;;;-4.50;100.00;96715.38;1020209;29;20170;-47
2021/03/07 02:10:37;;;;;;;11.50;7.08;;;;;;;-4.53;100.00;96723.88;1027988;28;20031;-48
2021/03/07 02:11:08;;;;;;;12.48;6.94;;;;;;;-4.58;100.00;96717.94;1024327;29;20023;-49
2021/03/07 02:11:39;;;;;;;10.98;6.90;;;;;;;-4.58;100.00;96715.38;1020145;29;20107;-48
2021/03/07 02:12:10;;;;;;;13.68;7.50;;;;;;;-4.57;100.00;96714.50;1020187;29;20509;-48
2021/03/07 02:12:41;;;;;;;9.74;6.88;;;;;;;-4.58;100.00;96715.38;1020206;29;20020;-47
2021/03/07 02:13:15;;;;;;;12.73;7.50;;;;;;;-4.58;100.00;96720.50;1028195;28;20022;-46
2021/03/07 02:13:46;;;;;;;9.42;6.56;;;;;;;-4.60;100.00;96711.09;1020014;29;20398;-48
2021/03/07 02:14:17;;;;;;;11.00;7.35;;;;;;;-4.59;100.00;96715.38;1020231;29;20062;-47
2021/03/07 02:14:49;;;;;;;11.10;6.68;;;;;;;-4.60;100.00;96711.97;1020159;29;20090;-47
2021/03/07 02:15:20;;;;;;;11.92;7.22;;;;;;;-4.59;100.00;96712.81;1016247;29;20020;-48
2021/03/07 02:15:53;;;;;;;12.00;7.18;;;;;;;-4.58;100.00;96712.81;1016376;29;20422;-48
2021/03/07 02:16:24;;;;;;;11.56;7.22;;;;;;;-4.57;100.00;96714.50;1020106;29;20055;-48
2021/03/07 02:16:55;;;;;;;10.55;6.85;;;;;;;-4.55;100.00;96710.25;1020227;29;20023;-48
2021/03/07 02:17:26;;;;;;;12.45;7.38;;;;;;;-4.56;100.00;96713.66;1016256;29;20024;-47
2021/03/07 02:17:56;;;;;;;10.73;7.35;;;;;;;-4.56;100.00;96718.78;1020312;29;20482;-49
2021/03/07 02:18:27;;;;;;;11.75;7.68;;;;;;;-4.58;100.00;96707.69;1016172;29;20032;-46
2021/03/07 02:18:59;;;;;;;13.92;8.24;;;;;;;-4.60;100.00;96717.06;1020143;29;20035;-48
2021/03/07 02:19:34;;;;;;;15.60;8.50;;;;;;;-4.60;100.00;96709.41;1020111;29;20034;-47
2021/03/07 02:20:06;;;;;;;12.60;7.64;;;;;;;-4.57;100.00;96706.84;1016182;29;20375;-48
2021/03/07 02:20:42;;;;;;;11.10;7.74;;;;;;;-4.56;100.00;96716.22;1024111;29;20515;-48
2021/03/07 02:21:15;;;;;;;11.30;7.40;;;;;;;-4.57;100.00;96711.94;1024187;29;20023;-49
2021/03/07 02:21:47;;;;;;;11.78;7.78;;;;;;;-4.56;100.00;96711.13;1020105;29;20023;-48
2021/03/07 02:22:24;;;;;;;11.42;7.76;;;;;;;-4.57;100.00;96709.38;1016328;29;20020;-48
2021/03/07 02:23:01;;;;;;;15.36;7.72;;;;;;;-4.56;100.00;96712.78;1020106;29;20098;-48
2021/03/07 02:23:51;;;;;;;11.66;7.72;;;;;;;-4.57;100.00;96717.06;1020023;29;20034;-48
2021/03/07 02:24:21;;;;;;;12.57;7.43;;;;;;;-4.58;100.00;96717.94;1016279;29;20020;-47
2021/03/07 02:24:52;;;;;;;11.63;7.93;;;;;;;-4.71;100.00;96694.03;1020005;29;20019;-47